createdAt,value
2023-02-22T00:02:38.967Z,12.27
2023-02-22T00:07:41.288Z,12.15
2023-02-22T00:12:43.389Z,12.15
2023-02-22T00:17:46.063Z,12.19
2023-02-22T00:22:49.666Z,12.17
2023-02-22T00:27:52.892Z,12.10
2023-02-22T00:32:56.900Z,12.12
2023-02-22T00:38:00.773Z,12.19
2023-02-22T00:43:05.349Z,12.23
2023-02-22T00:48:08.718Z,12.24
2023-02-22T00:53:11.259Z,12.20
2023-02-22T00:58:13.086Z,12.10
2023-02-22T01:03:19.224Z,12.01
2023-02-22T01:08:21.289Z,12.04
2023-02-22T01:13:23.175Z,12.08
2023-02-22T01:18:25.998Z,12.10
2023-02-22T01:23:28.402Z,12.07
2023-02-22T01:28:33.493Z,12.02
2023-02-22T01:33:37.102Z,12.01
2023-02-22T01:38:40.020Z,12.02
2023-02-22T01:43:41.852Z,12.01
2023-02-22T01:48:49.489Z,12.00
2023-02-22T01:54:09.526Z,11.97
2023-02-22T01:59:12.642Z,11.98
2023-02-22T02:04:25.619Z,12.01
2023-02-22T02:09:35.820Z,12.02
2023-02-22T02:14:40.630Z,12.00
2023-02-22T02:20:13.252Z,11.96
2023-02-22T02:25:54.591Z,12.00
2023-02-22T02:31:20.613Z,11.91
2023-02-22T02:36:31.843Z,11.77
2023-02-22T02:41:39.892Z,11.72
2023-02-22T02:46:56.200Z,11.68
2023-02-22T02:51:59.440Z,11.71
2023-02-22T02:57:03.091Z,11.69
2023-02-22T03:02:28.613Z,11.69
2023-02-22T03:08:10.901Z,11.61
2023-02-22T03:13:30.632Z,11.54
2023-02-22T03:18:49.097Z,11.46
2023-02-22T03:24:06.186Z,11.40
2023-02-22T03:29:11.707Z,11.43
2023-02-22T03:34:19.723Z,11.43
2023-02-22T03:39:31.118Z,11.42
2023-02-22T03:44:38.034Z,11.39
2023-02-22T03:49:55.844Z,11.32
2023-02-22T03:54:57.737Z,11.24
2023-02-22T03:59:59.715Z,11.15
2023-02-22T04:05:01.836Z,11.17
2023-02-22T04:10:04.726Z,11.19
2023-02-22T04:15:09.427Z,11.12
2023-02-22T04:20:13.719Z,11.04
2023-02-22T04:25:29.993Z,11.02
2023-02-22T04:30:32.422Z,11.03
2023-02-22T04:35:35.761Z,10.98
2023-02-22T04:40:39.004Z,10.96
2023-02-22T04:45:41.863Z,11.03
2023-02-22T04:50:44.296Z,11.06
2023-02-22T04:55:46.399Z,11.01
2023-02-22T05:00:48.204Z,10.97
2023-02-22T05:05:52.410Z,10.99
2023-02-22T05:10:54.807Z,11.00
2023-02-22T05:15:56.686Z,10.97
2023-02-22T05:20:58.437Z,10.94
2023-02-22T05:26:00.676Z,10.96
2023-02-22T05:31:02.483Z,10.91
2023-02-22T05:36:04.452Z,10.82
2023-02-22T05:41:06.145Z,10.75
2023-02-22T05:46:08.325Z,10.69
2023-02-22T05:51:10.759Z,10.72
2023-02-22T05:56:12.534Z,10.82
2023-02-22T06:01:14.265Z,10.89
2023-02-22T06:06:17.778Z,10.91
2023-02-22T06:11:19.982Z,10.94
2023-02-22T06:16:22.729Z,10.95
2023-02-22T06:21:24.493Z,10.93
2023-02-22T06:26:26.285Z,10.85
2023-02-22T06:31:28.088Z,10.89
2023-02-22T06:36:30.546Z,11.01
2023-02-22T06:41:32.324Z,11.07
2023-02-22T06:46:34.209Z,11.09
2023-02-22T06:51:37.625Z,10.99
2023-02-22T06:56:39.521Z,11.04
2023-02-22T07:06:59.234Z,11.12
2023-02-22T07:12:01.020Z,11.22
2023-02-22T07:17:03.382Z,11.28
2023-02-22T07:22:06.218Z,11.35
2023-02-22T07:27:07.976Z,11.43
2023-02-22T07:32:10.363Z,11.49
2023-02-22T07:37:12.154Z,11.56
2023-02-22T07:42:13.962Z,11.65
2023-02-22T07:47:16.048Z,11.72
2023-02-22T07:52:18.043Z,11.78
2023-02-22T07:57:19.783Z,11.85
2023-02-22T08:02:21.770Z,11.84
2023-02-22T08:07:23.539Z,11.81
2023-02-22T08:12:25.339Z,11.80
2023-02-22T08:17:27.099Z,11.81
2023-02-22T08:22:29.203Z,11.82
2023-02-22T08:27:31.312Z,11.79
2023-02-22T08:32:33.511Z,11.82
2023-02-22T08:37:35.408Z,11.87
2023-02-22T08:42:37.206Z,11.91
2023-02-22T08:47:39.183Z,11.98
2023-02-22T08:52:40.922Z,12.08
2023-02-22T08:57:42.670Z,12.18
2023-02-22T09:02:44.694Z,12.23
2023-02-22T09:07:46.496Z,12.27
2023-02-22T09:12:48.276Z,12.40
2023-02-22T09:17:50.238Z,12.52
2023-02-22T09:22:53.174Z,12.50
2023-02-22T09:27:56.166Z,12.58
2023-02-22T09:33:04.266Z,12.67
2023-02-22T09:38:06.564Z,12.75
2023-02-22T09:43:41.703Z,12.84
2023-02-22T09:49:05.502Z,12.86
2023-02-22T09:54:17.669Z,12.87
2023-02-22T09:59:30.115Z,12.93
2023-02-22T10:04:34.934Z,12.91
2023-02-22T10:09:42.887Z,13.02
2023-02-22T10:15:04.837Z,13.07
2023-02-22T10:20:06.846Z,13.07
2023-02-22T10:25:21.786Z,13.18
2023-02-22T10:30:54.801Z,13.27
2023-02-22T10:35:56.797Z,13.36
2023-02-22T10:41:10.851Z,13.50
2023-02-22T10:46:17.807Z,13.57
2023-02-22T10:51:20.753Z,13.61
2023-02-22T10:56:25.476Z,13.64
2023-02-22T11:01:35.407Z,13.63
2023-02-22T11:06:38.074Z,13.69
2023-02-22T11:11:42.755Z,13.77
2023-02-22T11:16:52.726Z,13.84
2023-02-22T11:22:22.569Z,13.85
2023-02-22T11:27:40.511Z,13.90
2023-02-22T11:32:53.741Z,13.95
2023-02-22T11:38:17.089Z,14.04
2023-02-22T11:43:20.645Z,14.01
2023-02-22T11:48:23.329Z,14.07
2023-02-22T11:53:34.364Z,14.20
2023-02-22T11:59:36.810Z,14.26
2023-02-22T12:05:03.109Z,14.30
2023-02-22T12:10:25.191Z,14.24
2023-02-22T12:15:29.961Z,14.22
2023-02-22T12:20:45.615Z,14.18
2023-02-22T12:25:58.831Z,14.25
2023-02-22T12:36:56.694Z,14.41
2023-02-22T12:42:02.068Z,14.43
2023-02-22T12:47:07.864Z,14.43
2023-02-22T12:52:46.796Z,14.45
2023-02-22T12:57:51.284Z,14.52
2023-02-22T13:03:04.763Z,14.59
2023-02-22T13:08:06.460Z,14.60
2023-02-22T13:13:11.277Z,14.62
2023-02-22T13:24:03.654Z,14.62
2023-02-22T13:29:13.872Z,14.66
2023-02-22T13:34:40.880Z,14.72
2023-02-22T13:39:57.770Z,14.74
2023-02-22T13:45:16.554Z,14.74
2023-02-22T13:50:33.353Z,14.68
2023-02-22T13:55:38.210Z,14.67
2023-02-22T14:00:52.674Z,14.64
2023-02-22T14:05:57.268Z,14.63
2023-02-22T14:11:20.108Z,14.64
2023-02-22T14:16:25.206Z,14.65
2023-02-22T14:21:27.023Z,14.66
2023-02-22T14:26:34.813Z,14.65
2023-02-22T14:31:46.644Z,14.63
2023-02-22T14:37:07.771Z,14.65
2023-02-22T14:42:24.260Z,14.67
2023-02-22T14:47:39.986Z,14.68
2023-02-22T14:52:46.698Z,14.67
2023-02-22T15:03:22.393Z,14.76
2023-02-22T15:08:28.390Z,14.78
2023-02-22T15:13:33.188Z,14.81
2023-02-22T15:18:43.480Z,14.86
2023-02-22T15:23:49.064Z,14.85
2023-02-22T15:28:55.800Z,14.81
2023-02-22T15:33:57.933Z,14.79
2023-02-22T15:44:28.992Z,14.72
2023-02-22T15:49:38.031Z,14.67
2023-02-22T15:54:44.222Z,14.60
2023-02-22T15:59:53.045Z,14.51
2023-02-22T16:05:01.837Z,14.42
2023-02-22T16:10:09.304Z,14.30
2023-02-22T16:15:17.216Z,14.22
2023-02-22T16:20:22.152Z,14.12
2023-02-22T16:25:31.197Z,14.05
2023-02-22T16:30:36.609Z,13.99
2023-02-22T16:35:38.563Z,13.91
2023-02-22T16:40:46.255Z,13.78
2023-02-22T16:45:48.513Z,13.60
2023-02-22T16:50:52.176Z,13.50
2023-02-22T16:56:00.815Z,13.43
2023-02-22T17:01:03.284Z,13.35
2023-02-22T17:06:05.391Z,13.26
2023-02-22T17:11:08.432Z,13.20
2023-02-22T17:16:16.997Z,13.14
2023-02-22T17:21:19.097Z,13.06
2023-02-22T17:26:20.911Z,12.98
2023-02-22T17:31:26.935Z,12.92
2023-02-22T17:36:30.066Z,12.87
2023-02-22T17:41:57.876Z,12.81
2023-02-22T17:47:24.770Z,12.74
2023-02-22T17:52:30.229Z,12.69
2023-02-22T17:57:32.530Z,12.65
2023-02-22T18:02:34.656Z,12.58
2023-02-22T18:07:36.898Z,12.51
2023-02-22T18:12:39.895Z,12.41
2023-02-22T18:17:41.647Z,12.35
2023-02-22T18:22:44.385Z,12.28
2023-02-22T18:27:46.142Z,12.19
2023-02-22T18:32:47.971Z,12.12
2023-02-22T18:38:25.595Z,12.06
2023-02-22T18:43:28.216Z,11.98
2023-02-22T18:48:29.957Z,11.92
2023-02-22T18:53:32.337Z,11.86
2023-02-22T18:58:35.095Z,11.78
2023-02-22T19:03:38.348Z,11.70
2023-02-22T19:08:42.646Z,11.64
2023-02-22T19:13:48.355Z,11.39
2023-02-22T19:18:52.510Z,11.01
2023-02-22T19:23:54.439Z,10.87
2023-02-22T19:28:58.600Z,10.74
2023-02-22T19:34:09.161Z,10.67
2023-02-22T19:39:11.744Z,10.60
2023-02-22T19:44:13.844Z,10.52
2023-02-22T19:49:16.298Z,10.52
2023-02-22T19:54:21.324Z,10.42
2023-02-22T19:59:23.666Z,10.34
2023-02-22T20:04:25.757Z,10.27
2023-02-22T20:09:43.243Z,10.26
2023-02-22T20:14:46.381Z,10.53
2023-02-22T20:19:48.948Z,10.15
2023-02-22T20:24:52.258Z,10.02
2023-02-22T20:30:25.646Z,10.30
2023-02-22T20:35:27.970Z,10.44
2023-02-22T20:40:29.719Z,10.54
2023-02-22T20:45:32.308Z,10.58
2023-02-22T20:50:35.621Z,10.55
2023-02-22T20:55:37.407Z,10.45
2023-02-22T21:00:39.170Z,10.40
2023-02-22T21:05:45.423Z,10.34
2023-02-22T21:10:48.306Z,10.30
2023-02-22T21:15:52.707Z,10.29
2023-02-22T21:20:54.517Z,10.30
2023-02-22T21:26:03.560Z,10.30
2023-02-22T21:31:08.055Z,10.29
2023-02-22T21:36:13.579Z,10.29
2023-02-22T21:41:17.159Z,10.27
2023-02-22T21:46:19.724Z,9.90
2023-02-22T21:51:25.479Z,10.22
2023-02-22T21:56:28.945Z,10.23
2023-02-22T22:01:36.643Z,10.32
2023-02-22T22:06:38.395Z,10.33
2023-02-22T22:11:40.134Z,10.18
2023-02-22T22:16:41.900Z,10.32
2023-02-22T22:21:44.022Z,10.29
2023-02-22T22:26:45.808Z,10.06
2023-02-22T22:31:47.766Z,9.93
2023-02-22T22:36:49.774Z,9.85
2023-02-22T22:41:52.198Z,9.73
2023-02-22T22:46:54.934Z,9.57
2023-02-22T22:51:56.710Z,9.54
2023-02-22T22:56:58.691Z,9.50
2023-02-22T23:02:03.125Z,9.46
2023-02-22T23:07:06.666Z,9.35
2023-02-22T23:12:16.941Z,9.28
2023-02-22T23:17:31.282Z,9.25
2023-02-22T23:22:33.347Z,9.31
2023-02-22T23:27:35.216Z,9.25
2023-02-22T23:32:37.028Z,9.16
2023-02-22T23:37:39.979Z,9.18
2023-02-22T23:42:42.148Z,9.19
2023-02-22T23:47:43.966Z,9.13
2023-02-22T23:52:46.347Z,9.12
2023-02-22T23:57:48.173Z,9.08
